Time;durP1;ratioP1;P1;durP2;ratioP2;P2;SDS_P1;SDS_P2;PMS_P1;PMS_P2;Temp;Humidity;BMP_temperature;BMP_pressure;BME280_temperature;BME280_humidity;BME280_pressure;Samples;Min_cycle;Max_cycle;Signal;HPM_P1;HPM_P2
2023/10/02 00:02:40;;;;;;;11.15;7.53;;;;;;;15.89;100.00;102027.59;5090521;28;20011;-36
2023/10/02 00:05:07;;;;;;;;;;;;;;;16.00;100.00;102016.91;5090241;28;20066;-36
2023/10/02 00:07:37;;;;;;;14.18;8.38;;;;;;;15.83;100.00;102011.34;5090145;28;19936;-36
2023/10/02 00:10:04;;;;;;;11.48;7.53;;;;;;;15.87;100.00;102021.56;5076711;28;20020;-36
2023/10/02 00:12:31;;;;;;;12.00;7.60;;;;;;;15.82;100.00;102023.34;5076857;28;20028;-36
2023/10/02 00:14:58;;;;;;;13.98;8.07;;;;;;;15.78;100.00;102016.69;5076171;28;20024;-36
2023/10/02 00:17:24;;;;;;;12.55;7.82;;;;;;;15.89;100.00;102026.75;5076363;28;20111;-36
2023/10/02 00:19:57;;;;;;;15.10;8.43;;;;;;;15.84;100.00;102018.47;5076054;28;20036;-36
2023/10/02 00:22:38;;;;;;;11.60;7.75;;;;;;;15.77;100.00;102023.22;5076403;28;20028;-36
2023/10/02 00:25:07;;;;;;;12.00;7.78;;;;;;;15.78;100.00;102019.44;5076874;28;20044;-36
2023/10/02 00:27:34;;;;;;;11.10;7.80;;;;;;;15.70;100.00;102018.69;5076539;28;20028;-36
2023/10/02 00:30:01;;;;;;;13.02;8.32;;;;;;;15.67;100.00;102013.72;5075919;28;20036;-36
2023/10/02 00:32:29;;;;;;;12.60;8.27;;;;;;;15.60;100.00;102017.59;5075993;28;20099;-36
2023/10/02 00:34:55;;;;;;;14.30;8.05;;;;;;;15.70;100.00;102023.31;5075808;28;20028;-36
2023/10/02 00:37:21;;;;;;;13.20;8.35;;;;;;;15.63;100.00;102011.69;5076586;28;20404;-36
2023/10/02 00:39:52;;;;;;;;;;;;;;;15.79;100.00;102021.91;5076262;28;20035;-36
2023/10/02 00:42:24;;;;;;;12.63;8.07;;;;;;;15.69;100.00;102019.75;5076014;28;20412;-36
2023/10/02 00:44:54;;;;;;;10.48;7.07;;;;;;;15.61;100.00;102013.78;5076247;28;20389;-36
2023/10/02 00:47:40;;;;;;;14.35;8.73;;;;;;;15.59;100.00;102016.78;5076455;28;20032;-36
2023/10/02 00:50:11;;;;;;;11.50;7.78;;;;;;;15.61;100.00;102013.78;5076150;28;20106;-36
2023/10/02 00:52:40;;;;;;;12.82;8.07;;;;;;;15.51;100.00;102013.56;5076098;28;20029;-36
2023/10/02 00:55:08;;;;;;;14.23;8.20;;;;;;;15.48;100.00;101997.69;5076043;28;20377;-36
2023/10/02 00:57:36;;;;;;;15.00;8.18;;;;;;;15.52;100.00;102010.63;5075764;28;20354;-36
2023/10/02 01:00:06;;;;;;;11.93;7.95;;;;;;;15.50;100.00;102007.28;5075056;28;20398;-36
2023/10/02 01:02:34;;;;;;;13.23;7.85;;;;;;;15.54;100.00;102005.75;5075015;28;20503;-36
2023/10/02 01:05:00;;;;;;;11.25;7.18;;;;;;;15.54;100.00;102004.91;5074938;28;20029;-36
2023/10/02 01:07:25;;;;;;;;;;;;;;;15.59;100.00;102008.59;5075971;28;20043;-36
2023/10/02 01:10:11;;;;;;;14.00;9.10;;;;;;;15.47;100.00;102005.03;5075748;28;19916;-36
2023/10/02 01:12:43;;;;;;;13.30;8.32;;;;;;;15.37;100.00;101997.44;5075434;28;20024;-36
2023/10/02 01:15:12;;;;;;;12.15;8.15;;;;;;;15.41;100.00;102004.06;5075647;28;20033;-36
2023/10/02 01:17:40;;;;;;;12.55;8.15;;;;;;;15.42;100.00;102002.16;5074984;28;20150;-36
2023/10/02 01:20:20;;;;;;;13.55;8.25;;;;;;;15.38;100.00;101993.66;5074229;28;20078;-36
2023/10/02 01:22:51;;;;;;;12.50;8.38;;;;;;;15.28;100.00;101976.22;5075508;28;20032;-36
2023/10/02 01:25:23;;;;;;;13.00;8.63;;;;;;;15.40;100.00;101993.41;5075446;28;20349;-36
2023/10/02 01:27:51;;;;;;;12.52;8.38;;;;;;;15.35;100.00;101998.72;5074573;28;20480;-36
2023/10/02 01:30:21;;;;;;;14.38;8.93;;;;;;;15.36;100.00;102000.38;5074452;28;20396;-36
2023/10/02 01:33:06;;;;;;;11.93;7.95;;;;;;;15.31;100.00;101992.91;5075237;28;20024;-36
2023/10/02 01:35:32;;;;;;;11.95;8.30;;;;;;;15.33;100.00;101996.25;5074988;28;20425;-36
2023/10/02 01:37:58;;;;;;;;;;;;;;;15.44;100.00;102002.78;5075655;28;20123;-36
2023/10/02 01:40:33;;;;;;;12.43;8.23;;;;;;;15.16;100.00;101990.63;5074596;28;20278;-36
2023/10/02 01:43:11;;;;;;;15.18;8.77;;;;;;;15.28;100.00;101996.13;5074623;28;20391;-36
2023/10/02 01:45:41;;;;;;;13.90;8.60;;;;;;;15.28;100.00;101992.56;5075066;28;20082;-36
2023/10/02 01:48:08;;;;;;;12.95;8.48;;;;;;;15.16;100.00;101979.72;5074727;28;20044;-36
2023/10/02 01:50:35;;;;;;;13.10;8.48;;;;;;;15.28;100.00;101987.13;5074051;28;20028;-36
2023/10/02 01:53:05;;;;;;;11.15;7.53;;;;;;;15.10;100.00;101980.69;5075173;28;20031;-36
2023/10/02 01:55:35;;;;;;;11.68;7.60;;;;;;;15.12;100.00;101981.25;5074292;28;20029;-36
2023/10/02 01:58:16;;;;;;;13.10;9.20;;;;;;;15.28;100.00;101992.56;5074435;28;20048;-36
2023/10/02 02:00:45;;;;;;;12.18;8.23;;;;;;;15.24;100.00;101988.66;5074163;28;20077;-36
2023/10/02 02:03:17;;;;;;;15.95;9.05;;;;;;;15.06;100.00;101987.66;5073859;28;20464;-36
2023/10/02 02:05:46;;;;;;;13.25;8.75;;;;;;;15.10;100.00;101993.47;5074389;28;20032;-36
2023/10/02 02:08:22;;;;;;;15.45;8.77;;;;;;;15.11;100.00;101990.50;5074321;28;20107;-36
2023/10/02 02:10:51;;;;;;;13.25;8.10;;;;;;;15.15;100.00;101982.69;5074046;28;20020;-36
2023/10/02 02:13:21;;;;;;;12.93;7.70;;;;;;;15.15;100.00;101978.06;5074328;28;20441;-36
2023/10/02 02:16:07;;;;;;;12.98;8.13;;;;;;;15.18;100.00;101990.41;5073875;28;20082;-36
2023/10/02 02:18:32;;;;;;;11.63;7.70;;;;;;;15.14;100.00;101987.31;5074128;28;20025;-36
2023/10/02 02:20:58;;;;;;;11.23;7.60;;;;;;;15.10;100.00;101988.03;5073794;28;20017;-36
2023/10/02 02:23:26;;;;;;;;;;;;;;;15.23;100.00;101984.25;5074520;28;20480;-36
2023/10/02 02:25:52;;;;;;;14.45;8.43;;;;;;;15.06;100.00;101973.19;5074314;28;19909;-36
2023/10/02 02:28:17;;;;;;;11.95;8.27;;;;;;;15.06;100.00;101978.66;5074374;28;20043;-36
2023/10/02 02:30:43;;;;;;;;;;;;;;;15.18;100.00;101983.06;5074097;28;20040;-36
2023/10/02 02:33:09;;;;;;;15.40;8.50;;;;;;;15.00;100.00;101980.41;5073216;28;20360;-36
2023/10/02 02:35:39;;;;;;;12.40;8.50;;;;;;;15.02;100.00;101978.28;5073596;28;20028;-36
2023/10/02 02:38:16;;;;;;;14.60;8.82;;;;;;;15.01;100.00;101975.78;5073582;28;20070;-36
2023/10/02 02:40:41;;;;;;;13.63;8.57;;;;;;;15.05;100.00;101983.25;5073676;28;20039;-36
2023/10/02 02:43:19;;;;;;;13.90;8.43;;;;;;;14.99;100.00;101978.75;5073943;28;20107;-36
2023/10/02 02:45:45;;;;;;;12.38;9.02;;;;;;;15.02;100.00;101978.28;5073861;28;20036;-36
2023/10/02 02:48:12;;;;;;;13.43;8.73;;;;;;;15.00;100.00;101976.88;5074116;28;20388;-36
2023/10/02 02:50:40;;;;;;;18.17;9.10;;;;;;;14.98;100.00;101968.91;5073182;28;20465;-36
2023/10/02 02:53:23;;;;;;;12.77;8.25;;;;;;;14.96;100.00;101973.75;5074349;28;20040;-36
2023/10/02 02:56:22;;;;;;;12.45;8.40;;;;;;;14.94;100.00;101965.84;5074317;28;20024;-36
2023/10/02 02:58:50;;;;;;;13.57;8.48;;;;;;;14.97;100.00;101967.25;5074247;28;20040;-36
2023/10/02 03:01:22;;;;;;;15.73;9.80;;;;;;;14.99;100.00;101969.75;5073668;28;20381;-36
2023/10/02 03:03:51;;;;;;;15.38;9.00;;;;;;;14.94;100.00;101965.84;5073682;28;20056;-36
2023/10/02 03:06:22;;;;;;;12.05;8.27;;;;;;;14.90;100.00;101966.53;5073609;28;20029;-36
2023/10/02 03:08:51;;;;;;;14.00;9.23;;;;;;;14.87;100.00;101958.81;5073358;28;20032;-36
2023/10/02 03:11:22;;;;;;;14.82;9.35;;;;;;;14.85;100.00;101945.44;5073085;28;20481;-36
2023/10/02 03:13:48;;;;;;;12.88;9.30;;;;;;;14.91;100.00;101960.00;5074165;28;20107;-36
2023/10/02 03:16:17;;;;;;;15.00;9.07;;;;;;;14.89;100.00;101957.53;5073252;28;20032;-36
2023/10/02 03:18:43;;;;;;;12.85;8.45;;;;;;;14.94;100.00;101949.50;5073220;28;20046;-36
2023/10/02 03:21:22;;;;;;;14.15;8.27;;;;;;;14.85;100.00;101933.72;5073254;28;20388;-36
2023/10/02 03:23:58;;;;;;;14.48;8.68;;;;;;;14.88;100.00;101944.13;5073237;28;20114;-36
2023/10/02 03:26:37;;;;;;;12.93;8.82;;;;;;;14.81;100.00;101927.91;5073211;28;20025;-36
2023/10/02 03:29:05;;;;;;;13.77;9.18;;;;;;;14.78;100.00;101946.59;5073183;28;20103;-36
2023/10/02 03:31:34;;;;;;;14.77;9.48;;;;;;;14.78;100.00;101938.41;5073072;28;20051;-36
2023/10/02 03:36:48;;;;;;;13.40;8.45;;;;;;;14.84;100.00;101951.13;5072828;28;20404;-36
2023/10/02 03:39:23;;;;;;;12.55;8.27;;;;;;;14.75;100.00;101936.19;5072867;28;20032;-36
2023/10/02 03:41:55;;;;;;;15.73;9.30;;;;;;;14.74;100.00;101939.94;5073900;28;20025;-36
2023/10/02 03:44:23;;;;;;;14.27;9.30;;;;;;;14.74;100.00;101942.66;5074986;28;20143;-36
2023/10/02 03:46:51;;;;;;;12.38;7.90;;;;;;;14.70;100.00;101942.31;5076489;28;20032;-36
2023/10/02 03:49:18;;;;;;;13.27;8.95;;;;;;;14.76;100.00;101941.38;5076716;28;20031;-36
2023/10/02 03:51:44;;;;;;;15.50;9.48;;;;;;;14.74;100.00;101934.50;5077144;28;20056;-36
2023/10/02 03:54:17;;;;;;;13.90;8.70;;;;;;;14.70;100.00;101953.22;5076927;28;20381;-36
2023/10/02 03:56:49;;;;;;;15.88;9.13;;;;;;;14.65;100.00;101942.19;5076299;28;20059;-36
2023/10/02 03:59:22;;;;;;;12.70;8.48;;;;;;;14.70;100.00;101949.66;5076517;28;20056;-36
2023/10/02 04:01:50;;;;;;;13.20;8.45;;;;;;;14.65;100.00;101945.75;5076780;28;20389;-36
2023/10/02 04:04:21;;;;;;;18.83;9.35;;;;;;;14.64;100.00;101926.91;5077316;28;20154;-36
2023/10/02 04:06:50;;;;;;;13.27;8.02;;;;;;;14.64;100.00;101933.19;5076116;28;20025;-36
2023/10/02 04:09:23;;;;;;;14.77;9.45;;;;;;;14.70;100.00;101946.94;5076070;28;20034;-36
2023/10/02 04:11:58;;;;;;;12.48;8.73;;;;;;;14.65;100.00;101948.47;5076646;28;20060;-36
2023/10/02 04:14:32;;;;;;;13.15;8.82;;;;;;;14.65;100.00;101948.47;5076641;28;20024;-36
2023/10/02 04:17:20;;;;;;;15.32;8.98;;;;;;;14.65;100.00;101951.19;5076727;28;20122;-36
2023/10/02 04:19:49;;;;;;;13.98;9.27;;;;;;;14.63;100.00;101945.13;5075892;28;20103;-36
2023/10/02 04:22:19;;;;;;;13.57;9.32;;;;;;;14.64;100.00;101951.41;5076609;28;20033;-36
2023/10/02 04:24:58;;;;;;;12.80;8.38;;;;;;;14.52;100.00;101931.47;5076076;28;20079;-36
2023/10/02 04:27:33;;;;;;;15.90;9.13;;;;;;;14.61;100.00;101939.09;5076008;28;20495;-36
2023/10/02 04:30:45;;;;;;;16.20;9.07;;;;;;;14.63;100.00;101936.13;5076010;28;20061;-36
2023/10/02 04:32:59;;;;;;;15.30;8.52;;;;;;;14.42;100.00;101924.66;5073307;28;20032;-36
2023/10/02 04:35:44;;;;;;;14.10;8.98;;;;;;;14.53;100.00;101933.13;5075949;28;20043;-36
2023/10/02 04:38:14;;;;;;;15.85;8.40;;;;;;;14.41;100.00;101922.19;5075760;28;20029;-36
2023/10/02 04:40:49;;;;;;;14.45;9.05;;;;;;;14.58;100.00;101938.72;5075380;28;20032;-36
2023/10/02 04:43:28;;;;;;;14.70;8.90;;;;;;;14.49;100.00;101932.75;5076015;28;20117;-36
2023/10/02 04:46:08;;;;;;;14.80;8.88;;;;;;;14.54;100.00;101948.41;5075927;28;20040;-36
2023/10/02 04:48:39;;;;;;;15.13;9.50;;;;;;;14.55;100.00;101950.91;5075850;28;20029;-36
2023/10/02 04:51:12;;;;;;;19.20;9.57;;;;;;;14.48;100.00;101946.59;5075849;28;20040;-36
2023/10/02 04:53:42;;;;;;;12.13;8.55;;;;;;;14.42;100.00;101938.28;5076362;28;20029;-36
2023/10/02 04:56:21;;;;;;;14.32;9.20;;;;;;;14.50;100.00;101941.78;5075701;28;20032;-36
2023/10/02 04:58:50;;;;;;;15.13;9.48;;;;;;;14.42;100.00;101937.44;5076071;28;20055;-36
2023/10/02 05:01:29;;;;;;;13.35;9.02;;;;;;;14.34;100.00;101932.31;5075034;28;20469;-36
2023/10/02 05:03:58;;;;;;;12.98;8.55;;;;;;;14.37;100.00;101937.31;5075396;28;20033;-36
2023/10/02 05:06:44;;;;;;;12.35;8.77;;;;;;;14.28;100.00;101923.19;5075238;28;20029;-36
2023/10/02 05:09:21;;;;;;;16.40;9.05;;;;;;;14.39;100.00;101929.72;5075235;28;20112;-36
2023/10/02 05:11:57;;;;;;;13.43;8.80;;;;;;;14.34;100.00;101932.31;5075188;28;20029;-36
2023/10/02 05:14:26;;;;;;;;;;;;;;;14.44;100.00;101929.88;5075866;28;20467;-36
2023/10/02 05:16:53;;;;;;;15.52;9.02;;;;;;;14.31;100.00;101925.44;5074649;28;19909;-36
2023/10/02 05:19:46;;;;;;;13.00;8.95;;;;;;;14.30;100.00;101920.22;5075271;28;20028;-36
2023/10/02 05:22:04;;;;;;;13.70;9.18;;;;;;;14.25;100.00;101929.09;5074826;28;20036;-36
2023/10/02 05:24:32;;;;;;;14.05;8.20;;;;;;;14.29;100.00;101933.00;5074826;28;20051;-36
2023/10/02 05:26:59;;;;;;;12.30;7.72;;;;;;;14.29;100.00;101934.88;5074807;28;20060;-36
2023/10/02 05:29:40;;;;;;;14.43;9.05;;;;;;;14.17;100.00;101938.38;5074747;28;20031;-36
2023/10/02 05:32:23;;;;;;;14.73;9.05;;;;;;;14.23;100.00;101924.94;5074483;28;20033;-36
2023/10/02 05:35:05;;;;;;;14.35;9.43;;;;;;;14.33;100.00;101949.69;5075216;28;20024;-36
2023/10/02 05:37:42;;;;;;;14.18;9.00;;;;;;;14.24;100.00;101943.72;5074556;28;20024;-36
2023/10/02 05:45:58;;;;;;;14.90;8.70;;;;;;;14.34;100.00;101940.47;5074157;28;20386;-36
2023/10/02 05:50:52;;;;;;;15.20;9.23;;;;;;;14.32;100.00;101948.88;5074439;28;20511;-36
2023/10/02 05:53:19;;;;;;;16.30;9.77;;;;;;;14.29;100.00;101957.47;5074552;28;20383;-36
2023/10/02 05:55:57;;;;;;;15.45;9.30;;;;;;;14.33;100.00;101963.31;5074191;28;20025;-36
2023/10/02 05:58:31;;;;;;;15.88;9.82;;;;;;;14.35;100.00;101961.19;5074538;28;20158;-36
2023/10/02 06:01:05;;;;;;;14.68;8.05;;;;;;;14.41;100.00;101960.28;5074030;28;20468;-36
2023/10/02 06:03:35;;;;;;;14.23;9.73;;;;;;;14.39;100.00;101959.66;5074594;28;20461;-36
2023/10/02 06:06:18;;;;;;;15.93;9.93;;;;;;;14.37;100.00;101959.91;5073480;28;20496;-36
2023/10/02 06:09:12;;;;;;;14.40;9.25;;;;;;;14.48;100.00;101954.75;5074575;28;20058;-36
2023/10/02 06:11:59;;;;;;;17.70;9.90;;;;;;;14.47;100.00;101950.34;5073953;28;20086;-36
2023/10/02 06:14:25;;;;;;;20.00;9.80;;;;;;;14.60;100.00;101951.03;5074084;28;20396;-36
2023/10/02 06:16:52;;;;;;;14.30;8.88;;;;;;;14.62;100.00;101951.63;5073767;28;20064;-36
2023/10/02 06:19:18;;;;;;;16.25;9.98;;;;;;;14.71;100.00;101959.47;5074080;28;20119;-36
2023/10/02 06:24:27;;;;;;;16.50;9.82;;;;;;;14.77;100.00;101966.72;5073805;28;20041;-36
2023/10/02 06:26:57;;;;;;;16.15;10.02;;;;;;;14.78;100.00;101962.94;5074530;28;20039;-36
2023/10/02 06:29:33;;;;;;;17.60;10.23;;;;;;;14.86;100.00;101962.59;5073946;28;20385;-36
2023/10/02 06:31:59;;;;;;;14.23;9.07;;;;;;;14.79;100.00;101970.06;5074236;28;20025;-36
2023/10/02 06:34:38;;;;;;;16.85;10.40;;;;;;;14.90;100.00;101977.44;5073858;28;20051;-36
2023/10/02 06:37:13;;;;;;;15.68;9.07;;;;;;;14.93;100.00;101976.94;5074391;28;20059;-36
2023/10/02 06:39:45;;;;;;;13.68;8.70;;;;;;;14.85;100.00;101974.56;5074148;28;20107;-36
2023/10/02 06:42:16;;;;;;;15.85;9.88;;;;;;;14.88;100.00;101977.66;5073414;28;20086;-36
2023/10/02 06:44:52;;;;;;;21.20;10.85;;;;;;;14.95;100.00;101963.94;5073217;28;20104;-36
2023/10/02 06:47:28;;;;;;;15.83;10.17;;;;;;;14.95;100.00;101969.38;5073858;28;20021;-36
2023/10/02 06:50:02;;;;;;;18.00;10.05;;;;;;;15.14;100.00;101979.16;5073814;28;20034;-36
2023/10/02 06:52:29;;;;;;;18.50;10.50;;;;;;;15.16;100.00;101963.38;5073172;28;20027;-36
2023/10/02 06:54:56;;;;;;;14.45;10.20;;;;;;;15.27;100.00;101977.25;5073431;28;20028;-36
2023/10/02 06:57:24;;;;;;;16.50;9.85;;;;;;;15.28;100.00;101971.59;5073681;28;20089;-36
2023/10/02 06:59:51;;;;;;;16.63;9.85;;;;;;;15.37;100.00;101974.78;5073668;28;20463;-36
2023/10/02 07:02:21;;;;;;;16.30;9.35;;;;;;;15.38;100.00;101958.22;5073706;28;20358;-36
2023/10/02 07:04:48;;;;;;;15.95;9.65;;;;;;;15.40;100.00;101950.63;5073362;28;20033;-36
2023/10/02 07:07:15;;;;;;;16.33;10.07;;;;;;;15.54;100.00;101958.56;5073362;28;20109;-36
2023/10/02 07:09:40;;;;;;;18.95;11.00;;;;;;;15.61;100.00;101962.81;5073546;28;20021;-36
2023/10/02 07:12:09;;;;;;;;;;;;;;;15.69;100.00;101970.69;5073417;28;20051;-36
2023/10/02 07:14:44;;;;;;;17.13;9.95;;;;;;;15.71;100.00;101967.72;5073954;28;19908;-36
2023/10/02 07:17:16;;;;;;;19.70;11.02;;;;;;;15.81;100.00;101962.50;5072933;28;20064;-36
2023/10/02 07:19:49;;;;;;;17.33;9.82;;;;;;;15.83;100.00;101959.53;5075398;28;20031;-37
2023/10/02 07:22:23;;;;;;;17.52;10.35;;;;;;;15.87;100.00;101953.38;5077229;28;20028;-36
2023/10/02 07:24:56;;;;;;;17.05;10.40;;;;;;;16.00;100.00;101959.63;5076920;28;20119;-36
2023/10/02 07:27:26;;;;;;;15.77;9.95;;;;;;;16.15;100.00;101963.53;5077050;28;20034;-36
2023/10/02 07:29:54;;;;;;;14.00;9.13;;;;;;;16.31;100.00;101972.03;5092269;28;20028;-36
2023/10/02 07:32:24;;;;;;;17.35;10.68;;;;;;;16.45;100.00;101976.13;5077377;28;20409;-36
2023/10/02 07:34:51;;;;;;;16.98;10.85;;;;;;;16.52;100.00;101963.16;5077225;28;20435;-36
2023/10/02 07:37:21;;;;;;;16.45;9.88;;;;;;;16.66;100.00;101964.53;5076956;28;20029;-37
2023/10/02 07:40:00;;;;;;;15.63;10.55;;;;;;;16.77;100.00;101964.75;5077670;28;20024;-36
2023/10/02 07:42:28;;;;;;;17.92;10.80;;;;;;;16.83;100.00;101971.94;5077107;28;20028;-36
2023/10/02 07:45:11;;;;;;;20.58;10.40;;;;;;;16.90;100.00;101973.47;5076724;28;20035;-36
2023/10/02 07:47:55;;;;;;;17.83;10.20;;;;;;;16.86;100.00;101964.09;5076718;28;20037;-36
2023/10/02 07:50:33;;;;;;;16.95;10.38;;;;;;;16.96;100.00;101971.66;5077188;28;20115;-36
2023/10/02 07:53:01;;;;;;;16.33;10.00;;;;;;;16.97;100.00;101981.50;5077386;28;20052;-36
2023/10/02 07:55:27;;;;;;;15.18;9.70;;;;;;;16.98;100.00;101966.75;5076329;28;20055;-36
2023/10/02 07:58:00;;;;;;;15.10;9.40;;;;;;;16.95;100.00;101962.63;5077521;28;20037;-36
2023/10/02 08:00:40;;;;;;;19.73;10.25;;;;;;;17.05;100.00;101964.72;5077101;28;20372;-36
2023/10/02 08:03:43;;;;;;;14.85;10.00;;;;;;;17.03;100.00;101955.09;5076422;28;20523;-36
2023/10/02 08:06:20;;;;;;;14.00;9.02;;;;;;;17.13;100.00;101967.03;5073987;28;20044;-36
2023/10/02 08:08:46;;;;;;;16.55;10.13;;;;;;;17.19;100.00;101966.03;5076939;28;20033;-36
2023/10/02 08:11:12;;;;;;;15.50;10.07;;;;;;;17.22;100.00;101968.25;5076367;28;20112;-36
2023/10/02 08:13:39;;;;;;;;;;;;;;;17.32;100.00;101964.88;5077079;28;20028;-36
2023/10/02 08:16:14;;;;;;;18.48;10.77;;;;;;;17.36;100.00;101965.19;5077053;28;19912;-36
2023/10/02 08:18:58;;;;;;;16.90;10.25;;;;;;;17.50;100.00;101982.94;5076130;28;20530;-36
2023/10/02 08:21:35;;;;;;;17.42;10.63;;;;;;;17.59;100.00;101980.59;5076218;28;20058;-36
2023/10/02 08:24:04;;;;;;;19.27;11.32;;;;;;;17.67;100.00;101989.22;5075834;28;20032;-36
2023/10/02 08:26:40;;;;;;;17.08;10.50;;;;;;;17.77;100.00;101994.06;5076325;28;20106;-36
2023/10/02 08:29:10;;;;;;;20.33;10.73;;;;;;;17.84;100.00;101980.19;5075907;28;20025;-36
2023/10/02 08:31:42;;;;;;;16.80;10.50;;;;;;;18.00;100.00;101987.50;5075780;28;20025;-36
2023/10/02 08:34:12;;;;;;;15.25;9.57;;;;;;;18.13;100.00;101992.63;5075954;28;20028;-36
2023/10/02 08:36:40;;;;;;;23.05;11.15;;;;;;;18.23;100.00;101995.50;5076163;28;20036;-36
2023/10/02 08:39:08;;;;;;;18.77;11.02;;;;;;;18.31;100.00;101982.47;5076403;28;20032;-36
2023/10/02 08:41:43;;;;;;;16.83;10.45;;;;;;;18.47;100.00;101976.06;5076029;28;20032;-36
2023/10/02 08:44:10;;;;;;;17.85;10.48;;;;;;;18.60;100.00;101978.41;5075744;28;20465;-37
2023/10/02 08:46:36;;;;;;;13.60;9.63;;;;;;;18.66;100.00;101979.28;5076032;28;20111;-36
2023/10/02 08:49:06;;;;;;;;;;;;;;;18.77;100.00;101981.06;5076711;28;20548;-37
2023/10/02 08:51:36;;;;;;;16.40;10.13;;;;;;;18.69;100.00;101978.78;5075914;28;19920;-37
2023/10/02 08:54:06;;;;;;;16.83;10.70;;;;;;;18.72;100.00;101968.16;5075596;28;20119;-37
2023/10/02 08:56:45;;;;;;;15.77;10.40;;;;;;;18.84;100.00;101965.28;5075358;28;20035;-37
2023/10/02 08:59:18;;;;;;;18.20;10.57;;;;;;;18.90;100.00;101958.75;5076322;28;20028;-36
2023/10/02 09:01:47;;;;;;;17.52;10.48;;;;;;;18.96;100.00;101954.13;5075757;28;20029;-36
2023/10/02 09:04:22;;;;;;;17.75;11.35;;;;;;;19.15;100.00;101957.31;5075357;28;20039;-37
2023/10/02 09:06:49;;;;;;;15.02;9.73;;;;;;;19.22;100.00;101956.00;5075143;28;20035;-36
2023/10/02 09:11:57;;;;;;;;;;;;;;;19.41;100.00;101958.34;5076632;28;20055;-37
2023/10/02 09:19:49;;;;;;;14.07;10.35;;;;;;;19.27;100.00;101969.75;5075135;28;20033;-37
2023/10/02 09:22:18;;;;;;;16.63;9.82;;;;;;;19.25;100.00;101966.44;5075022;28;20032;-36
2023/10/02 09:24:58;;;;;;;18.15;9.85;;;;;;;19.23;100.00;101967.81;5075800;28;20032;-37
2023/10/02 09:27:27;;;;;;;16.23;10.40;;;;;;;19.21;100.00;101962.56;5074919;28;20029;-37
2023/10/02 09:32:49;;;;;;;18.05;10.45;;;;;;;19.30;100.00;101952.78;5075413;28;20039;-36
2023/10/02 09:35:29;;;;;;;16.27;10.98;;;;;;;19.42;100.00;101958.09;5075270;28;20029;-37
2023/10/02 09:38:06;;;;;;;17.80;10.63;;;;;;;19.60;100.00;101956.03;5075149;28;20028;-37
2023/10/02 09:40:54;;;;;;;15.85;10.70;;;;;;;19.82;100.00;101953.16;5074898;28;20032;-36
2023/10/02 09:43:24;;;;;;;17.70;10.55;;;;;;;19.88;100.00;101941.94;5074501;28;20025;-37
2023/10/02 09:45:54;;;;;;;16.55;10.57;;;;;;;19.97;100.00;101945.00;5074206;28;20513;-37
2023/10/02 09:48:53;;;;;;;17.02;10.65;;;;;;;20.03;100.00;101949.41;5074782;28;20021;-36
2023/10/02 09:51:30;;;;;;;16.25;9.57;;;;;;;20.17;100.00;101950.56;5075076;28;20029;-37
2023/10/02 09:54:28;;;;;;;14.82;9.88;;;;;;;20.37;100.00;101954.50;5075263;28;20086;-36
2023/10/02 09:57:13;;;;;;;16.50;10.70;;;;;;;20.48;100.00;101947.94;5073505;28;20408;-37
2023/10/02 09:59:46;;;;;;;14.82;10.05;;;;;;;20.63;100.00;101950.72;5074628;28;20048;-37
2023/10/02 10:05:01;;;;;;;17.33;10.73;;;;;;;21.01;100.00;101956.84;5074550;28;20037;-37
2023/10/02 10:07:46;;;;;;;16.25;9.65;;;;;;;21.15;100.00;101952.44;5074944;28;20029;-37
2023/10/02 10:10:45;;;;;;;15.77;10.20;;;;;;;21.24;100.00;101941.72;5073743;28;20037;-37
2023/10/02 10:13:24;;;;;;;15.05;9.32;;;;;;;21.46;100.00;101941.44;5074292;28;20032;-37
2023/10/02 10:15:50;;;;;;;15.25;9.88;;;;;;;21.48;100.00;101947.50;5074287;28;20397;-37
2023/10/02 10:18:17;;;;;;;15.45;9.30;;;;;;;21.42;100.00;101932.09;5073901;28;20078;-37
2023/10/02 10:20:44;;;;;;;14.68;9.52;;;;;;;21.39;100.00;101932.66;5074449;28;20372;-37
2023/10/02 10:23:34;;;;;;;16.35;10.05;;;;;;;21.28;100.00;101927.13;5074204;28;20032;-37
2023/10/02 10:26:07;;;;;;;15.55;10.05;;;;;;;21.28;100.00;101929.88;5073870;28;20085;-37
2023/10/02 10:28:50;;;;;;;16.38;9.77;;;;;;;21.41;100.00;101930.44;5073810;28;20024;-37
2023/10/02 10:31:26;;;;;;;19.40;11.07;;;;;;;21.53;100.00;101939.25;5074089;28;20090;-37
2023/10/02 10:33:51;;;;;;;16.38;10.30;;;;;;;21.62;100.00;101929.31;5073764;28;20036;-37
2023/10/02 10:36:35;;;;;;;16.13;11.10;;;;;;;21.74;100.00;101918.81;5073666;28;20025;-37
2023/10/02 10:39:30;;;;;;;16.85;9.75;;;;;;;21.84;100.00;101916.00;5073848;28;20078;-37
2023/10/02 10:41:57;;;;;;;17.92;10.80;;;;;;;22.06;100.00;101925.88;5073781;28;20032;-37
2023/10/02 10:44:42;;;;;;;14.32;9.80;;;;;;;21.92;100.00;101919.31;5073867;28;20025;-37
2023/10/02 10:47:13;;;;;;;17.05;10.23;;;;;;;21.72;100.00;101911.94;5073647;28;20033;-36
2023/10/02 10:49:52;;;;;;;15.48;10.10;;;;;;;21.67;100.00;101904.53;5073848;28;20376;-36
2023/10/02 10:52:34;;;;;;;17.05;10.45;;;;;;;21.71;100.00;101908.34;5073663;28;20025;-36
2023/10/02 10:55:04;;;;;;;18.55;11.27;;;;;;;21.69;100.00;101907.00;5073501;28;20032;-36
2023/10/02 10:57:43;;;;;;;16.20;10.63;;;;;;;21.55;100.00;101906.75;5073327;28;20489;-36
2023/10/02 11:00:24;;;;;;;16.33;10.23;;;;;;;21.45;100.00;101904.03;5073446;28;20056;-36
2023/10/02 11:03:10;;;;;;;18.70;10.55;;;;;;;21.46;100.00;101914.75;5073757;28;20024;-36
2023/10/02 11:05:37;;;;;;;17.40;11.05;;;;;;;21.48;100.00;101904.28;5073427;28;20025;-36
2023/10/02 11:08:24;;;;;;;13.77;9.80;;;;;;;21.55;100.00;101907.56;5072538;28;20048;-37
2023/10/02 11:11:19;;;;;;;17.10;10.82;;;;;;;21.72;100.00;101903.69;5073244;28;20404;-36
2023/10/02 11:13:54;;;;;;;17.23;11.63;;;;;;;21.80;100.00;101903.91;5073652;28;20063;-36
2023/10/02 11:16:37;;;;;;;15.85;10.68;;;;;;;21.98;100.00;101907.16;5073262;28;20032;-36
2023/10/02 11:19:14;;;;;;;18.70;10.60;;;;;;;22.02;100.00;101892.53;5073201;28;20579;-36
2023/10/02 11:22:03;;;;;;;16.08;10.25;;;;;;;22.02;100.00;101891.72;5073562;28;20126;-36
2023/10/02 11:24:29;;;;;;;17.70;11.23;;;;;;;21.89;100.00;101879.38;5064551;28;20137;-36
2023/10/02 11:27:06;;;;;;;17.33;10.93;;;;;;;21.97;100.00;101889.81;5073479;28;20226;-36
2023/10/02 11:29:40;;;;;;;16.77;11.43;;;;;;;21.89;100.00;101897.84;5072856;28;20472;-36
2023/10/02 11:32:27;;;;;;;18.67;10.90;;;;;;;21.83;100.00;101889.59;5073423;28;20064;-36
2023/10/02 11:34:59;;;;;;;15.70;10.73;;;;;;;21.81;100.00;101894.56;5073162;28;20020;-36
2023/10/02 11:37:26;;;;;;;18.10;11.52;;;;;;;21.81;100.00;101896.47;5072794;28;20481;-36
2023/10/02 11:39:53;;;;;;;15.32;9.85;;;;;;;21.80;100.00;101883.81;5072797;28;20366;-36
2023/10/02 11:42:19;;;;;;;15.32;10.77;;;;;;;21.88;100.00;101885.19;5073013;28;20480;-36
2023/10/02 11:44:45;;;;;;;16.98;10.18;;;;;;;21.85;100.00;101857.09;5072936;28;20068;-36
2023/10/02 11:47:10;;;;;;;15.55;10.63;;;;;;;22.06;100.00;101877.09;5073586;28;20055;-36
2023/10/02 11:49:37;;;;;;;17.33;11.32;;;;;;;22.06;100.00;101868.03;5073335;28;20021;-36
2023/10/02 11:52:03;;;;;;;15.32;10.40;;;;;;;22.14;100.00;101866.63;5073811;28;20020;-36
2023/10/02 11:54:29;;;;;;;16.73;10.75;;;;;;;22.32;100.00;101866.78;5073157;28;20411;-36
2023/10/02 11:56:55;;;;;;;14.85;9.98;;;;;;;22.43;100.00;101852.94;5072609;28;20031;-36
2023/10/02 11:59:20;;;;;;;16.13;10.25;;;;;;;22.50;100.00;101856.22;5072774;28;20028;-36
2023/10/02 12:01:47;;;;;;;18.52;11.55;;;;;;;22.54;100.00;101849.00;5072756;28;20038;-36
2023/10/02 12:04:13;;;;;;;15.50;10.35;;;;;;;22.58;100.00;101845.38;5072696;28;20032;-36